Terminal Aerodrome Forecast
Issued by NWS Cleveland, OH

Home | Current Version | Previous Version | Graphics & Text | Print | Product List | Glossary On
Versions: 1 2 3 4 5 6 7 8 9 10 11 12 13 14 15 16 17
000
FTUS41 KCLE 200532
TAFYNG
TAF
KYNG 200532Z 2006/2106 10003KT P6SM SCT040 OVC080
     FM200900 17003KT 3SM BR SCT008 OVC040
      TEMPO 2010/2013 1 1/2SM BR BKN006
     FM201500 23005KT P6SM BKN050
     FM202000 27006KT P6SM VCTS BKN035CB
     FM202300 01004KT P6SM SCT035 BKN080=

USA.gov is the U.S. government's official web portal to all federal, state and local government web resources and services.